Time;durP1;ratioP1;P1;durP2;ratioP2;P2;SDS_P1;SDS_P2;PMS_P1;PMS_P2;Temp;Humidity;BMP_temperature;BMP_pressure;BME280_temperature;BME280_humidity;BME280_pressure;Samples;Min_cycle;Max_cycle;Signal;HPM_P1;HPM_P2
2021/11/17 02:26:22;;;;;;;;;;;5.70;99.90;;;;;;4966238;28;19931;-75
2021/11/17 02:28:56;;;;;;;;;;;5.70;99.90;;;;;;4948545;28;19930;-75
2021/11/17 02:31:32;;;;;;;;;;;5.70;99.90;;;;;;4950682;28;20447;-75
2021/11/17 02:34:08;;;;;;;;;;;5.70;99.90;;;;;;4949596;29;20027;-76
2021/11/17 02:36:42;;;;;;;;;;;5.80;99.90;;;;;;4947332;28;19927;-75
2021/11/17 02:39:16;;;;;;;;;;;5.80;99.90;;;;;;4948549;28;20012;-75
2021/11/17 02:41:52;;;;;;;;;;;5.80;99.90;;;;;;4939464;28;20029;-75
2021/11/17 02:44:25;;;;;;;;;;;5.80;99.90;;;;;;4938343;28;20017;-75
2021/11/17 02:47:05;;;;;;;;;;;5.80;99.90;;;;;;4937853;28;20674;-75
2021/11/17 02:49:48;;;;;;;;;;;5.90;99.90;;;;;;4991567;28;19971;-75
2021/11/17 02:52:31;;;;;;;;;;;6.00;99.90;;;;;;4938449;29;20013;-76
2021/11/17 02:55:05;;;;;;;;;;;6.00;99.90;;;;;;4947240;28;20014;-75
2021/11/17 02:57:42;;;;;;;;;;;6.00;99.90;;;;;;4948348;28;20445;-75
2021/11/17 03:00:15;;;;;;;;;;;6.00;99.90;;;;;;4934371;28;20029;-75
2021/11/17 03:02:51;;;;;;;;;;;6.00;99.90;;;;;;4957698;28;20011;-75
2021/11/17 03:05:36;;;;;;;;;;;6.00;99.90;;;;;;4939282;29;20362;-75
2021/11/17 03:08:13;;;;;;;;;;;6.00;99.90;;;;;;4960916;28;20389;-75
2021/11/17 03:10:50;;;;;;;;;;;6.00;99.90;;;;;;4943329;28;19927;-76
2021/11/17 03:13:24;;;;;;;;;;;6.10;99.90;;;;;;4960773;28;19966;-75
2021/11/17 03:15:59;;;;;;;;;;;6.10;99.90;;;;;;4947032;29;19966;-78
2021/11/17 03:18:32;;;;;;;;;;;6.10;99.90;;;;;;4958943;28;19981;-75
2021/11/17 03:21:06;;;;;;;;;;;6.10;99.90;;;;;;4967385;28;19969;-75
2021/11/17 03:23:43;;;;;;;;;;;6.10;99.90;;;;;;4943255;29;20017;-75
2021/11/17 03:26:16;;;;;;;;;;;6.10;99.90;;;;;;4945448;28;19972;-75
2021/11/17 03:28:50;;;;;;;;;;;6.10;99.90;;;;;;4944481;28;20026;-75
2021/11/17 03:31:23;;;;;;;;;;;6.10;99.90;;;;;;4943327;29;20010;-75
2021/11/17 03:34:07;;;;;;;;;;;6.10;99.90;;;;;;4949374;28;19931;-75
2021/11/17 03:36:49;;;;;;;;;;;6.10;99.90;;;;;;4946511;28;20022;-75
2021/11/17 03:39:42;;;;;;;;;;;6.20;99.90;;;;;;4948168;28;20334;-75
2021/11/17 03:42:20;;;;;;;;;;;6.20;99.90;;;;;;4909624;28;20013;-75
2021/11/17 03:44:57;;;;;;;;;;;6.20;99.90;;;;;;4969945;28;20374;-76
2021/11/17 03:47:36;;;;;;;;;;;6.20;99.90;;;;;;4949443;28;19926;-75
2021/11/17 03:50:16;;;;;;;;;;;6.20;99.90;;;;;;4936715;28;20021;-76
2021/11/17 03:52:49;;;;;;;;;;;6.30;99.90;;;;;;4971538;28;20297;-75
2021/11/17 03:55:26;;;;;;;;;;;6.30;99.90;;;;;;4947850;29;20038;-75
2021/11/17 03:58:00;;;;;;;;;;;6.30;99.90;;;;;;4963519;28;20016;-75
2021/11/17 04:00:37;;;;;;;;;;;6.30;99.90;;;;;;4948217;28;20638;-76
2021/11/17 04:03:14;;;;;;;;;;;6.30;99.90;;;;;;4962898;28;20354;-75
2021/11/17 04:05:46;;;;;;;;;;;6.30;99.90;;;;;;4945414;28;19932;-75
2021/11/17 04:08:23;;;;;;;;;;;6.30;99.90;;;;;;4947132;28;20017;-76
2021/11/17 04:11:00;;;;;;;;;;;6.30;99.90;;;;;;4956253;28;20357;-76
2021/11/17 04:13:32;;;;;;;;;;;6.30;99.90;;;;;;4949113;28;19995;-75
2021/11/17 04:16:05;;;;;;;;;;;6.30;99.90;;;;;;4942667;29;20368;-75
2021/11/17 04:18:38;;;;;;;;;;;6.30;99.90;;;;;;4944542;28;19973;-75
2021/11/17 04:21:13;;;;;;;;;;;6.30;99.90;;;;;;4948733;28;20029;-75
2021/11/17 04:23:46;;;;;;;;;;;6.30;99.90;;;;;;4948042;28;20017;-76
2021/11/17 04:26:19;;;;;;;;;;;6.30;99.90;;;;;;4957935;28;20025;-76
2021/11/17 04:28:56;;;;;;;;;;;6.20;99.90;;;;;;4955694;28;20021;-75
2021/11/17 04:31:34;;;;;;;;;;;6.20;99.90;;;;;;4938496;28;20616;-76
2021/11/17 04:34:11;;;;;;;;;;;6.30;99.90;;;;;;4939045;28;19933;-75
2021/11/17 04:36:47;;;;;;;;;;;6.30;99.90;;;;;;4935491;28;20045;-76
2021/11/17 04:39:23;;;;;;;;;;;6.20;99.90;;;;;;4957037;28;19970;-75
2021/11/17 04:41:57;;;;;;;;;;;6.20;99.90;;;;;;4945752;28;20377;-76
2021/11/17 04:44:30;;;;;;;;;;;6.20;99.90;;;;;;4951215;28;20014;-74
2021/11/17 04:47:12;;;;;;;;;;;6.30;99.90;;;;;;4971446;28;20007;-75
2021/11/17 04:49:45;;;;;;;;;;;6.30;99.90;;;;;;4953891;28;20023;-74
2021/11/17 04:52:21;;;;;;;;;;;6.30;99.90;;;;;;4945233;28;20362;-75
2021/11/17 04:54:54;;;;;;;;;;;6.30;99.90;;;;;;4949567;28;20030;-75
2021/11/17 04:57:28;;;;;;;;;;;6.30;99.90;;;;;;4973020;28;19925;-74
2021/11/17 05:00:07;;;;;;;;;;;6.30;99.90;;;;;;4939683;28;19931;-74
2021/11/17 05:02:42;;;;;;;;;;;6.40;99.90;;;;;;4948678;28;20009;-74
2021/11/17 05:05:19;;;;;;;;;;;6.40;99.90;;;;;;4935533;28;20010;-74
2021/11/17 05:07:50;;;;;;;;;;;6.40;99.90;;;;;;4987756;28;20309;-74
2021/11/17 05:10:23;;;;;;;;;;;6.50;99.90;;;;;;4939766;28;20454;-75
2021/11/17 05:12:55;;;;;;;;;;;6.40;99.90;;;;;;4953515;28;20021;-75
2021/11/17 05:15:29;;;;;;;;;;;6.40;99.90;;;;;;4941965;28;20365;-75
2021/11/17 05:17:59;;;;;;;;;;;6.40;99.90;;;;;;4990838;28;20012;-76
2021/11/17 05:20:32;;;;;;;;;;;6.50;99.90;;;;;;4939771;29;20392;-76
2021/11/17 05:23:06;;;;;;;;;;;6.50;99.90;;;;;;4976863;28;19927;-75
2021/11/17 05:25:46;;;;;;;;;;;6.50;99.90;;;;;;4975218;28;20014;-76
2021/11/17 05:28:23;;;;;;;;;;;6.50;99.90;;;;;;4968124;28;19967;-75
2021/11/17 05:31:00;;;;;;;;;;;6.50;99.90;;;;;;4945073;29;20037;-76
2021/11/17 05:33:34;;;;;;;;;;;6.60;99.90;;;;;;4980914;28;20343;-75
2021/11/17 05:36:06;;;;;;;;;;;6.60;99.90;;;;;;4938102;28;20026;-76
2021/11/17 05:38:39;;;;;;;;;;;6.60;99.90;;;;;;4958662;28;20023;-77
2021/11/17 05:41:22;;;;;;;;;;;6.60;99.90;;;;;;4948462;28;19954;-75
2021/11/17 05:43:54;;;;;;;;;;;6.60;99.90;;;;;;4957595;28;20301;-76
2021/11/17 05:46:28;;;;;;;;;;;6.60;99.90;;;;;;4937968;28;20030;-76
2021/11/17 05:49:00;;;;;;;;;;;6.60;99.90;;;;;;4939194;28;20030;-75
2021/11/17 05:51:37;;;;;;;;;;;6.70;99.90;;;;;;4954791;28;19960;-75
2021/11/17 05:54:13;;;;;;;;;;;6.70;99.90;;;;;;4957862;28;19985;-75
2021/11/17 05:56:48;;;;;;;;;;;6.70;99.90;;;;;;4966932;28;19925;-76
2021/11/17 05:59:21;;;;;;;;;;;6.70;99.90;;;;;;4959119;28;20436;-75
2021/11/17 06:01:55;;;;;;;;;;;6.80;99.90;;;;;;4950976;28;19933;-75
2021/11/17 06:04:21;;;;;;;;;;;6.80;99.90;;;;;;4938913;29;20057;-75
2021/11/17 06:06:48;;;;;;;;;;;6.80;99.90;;;;;;4951600;28;20021;-75
2021/11/17 06:09:14;;;;;;;;;;;6.80;99.90;;;;;;4944657;28;20370;-75
2021/11/17 06:11:45;;;;;;;;;;;6.80;99.90;;;;;;4941251;28;20018;-75
2021/11/17 06:14:13;;;;;;;;;;;6.90;99.90;;;;;;4967059;28;20371;-75
2021/11/17 06:16:41;;;;;;;;;;;6.90;99.90;;;;;;4946325;29;19927;-75
2021/11/17 06:19:08;;;;;;;;;;;6.90;99.90;;;;;;4981443;28;19931;-75
2021/11/17 06:21:35;;;;;;;;;;;6.90;99.90;;;;;;4936147;28;20033;-74
2021/11/17 06:24:04;;;;;;;;;;;6.90;99.90;;;;;;4939567;28;20021;-74
2021/11/17 06:26:32;;;;;;;;;;;6.90;99.90;;;;;;4935858;29;20370;-74
2021/11/17 06:29:01;;;;;;;;;;;6.90;99.90;;;;;;4953079;28;20029;-74
2021/11/17 06:31:28;;;;;;;;;;;6.90;99.90;;;;;;4939231;28;20305;-74
2021/11/17 06:33:55;;;;;;;;;;;6.90;99.90;;;;;;4938366;28;20369;-74
2021/11/17 06:36:22;;;;;;;;;;;7.00;99.90;;;;;;4967150;28;19924;-75
2021/11/17 06:38:56;;;;;;;;;;;7.00;99.90;;;;;;4959709;28;20014;-75
2021/11/17 06:41:23;;;;;;;;;;;7.00;99.90;;;;;;4952864;28;19933;-75
2021/11/17 06:43:50;;;;;;;;;;;7.00;99.90;;;;;;4961928;28;19932;-74
2021/11/17 06:46:18;;;;;;;;;;;7.00;99.90;;;;;;4950421;28;20030;-75
2021/11/17 06:48:44;;;;;;;;;;;7.10;99.90;;;;;;4952848;28;20340;-75
2021/11/17 06:51:11;;;;;;;;;;;7.10;99.90;;;;;;4944047;28;20288;-75
2021/11/17 06:53:40;;;;;;;;;;;7.10;99.90;;;;;;4969475;28;20009;-75
2021/11/17 06:56:07;;;;;;;;;;;7.10;99.90;;;;;;4961191;28;19934;-76
2021/11/17 06:58:33;;;;;;;;;;;7.10;99.90;;;;;;4954228;28;19931;-76
2021/11/17 07:01:00;;;;;;;;;;;7.10;99.90;;;;;;4961614;28;20021;-76
2021/11/17 07:03:30;;;;;;;;;;;7.20;99.90;;;;;;4952553;28;20013;-78
2021/11/17 07:05:57;;;;;;;;;;;7.10;99.90;;;;;;4935589;29;19927;-77
2021/11/17 07:08:24;;;;;;;;;;;7.10;99.90;;;;;;4942169;28;19950;-77
2021/11/17 07:10:51;;;;;;;;;;;7.10;99.90;;;;;;4953854;28;19973;-77
2021/11/17 07:13:18;;;;;;;;;;;7.10;99.90;;;;;;4960932;28;19927;-76
2021/11/17 07:15:45;;;;;;;;;;;7.10;99.90;;;;;;4995303;28;19977;-76
2021/11/17 07:18:12;;;;;;;;;;;7.10;99.90;;;;;;4948556;28;19974;-77
2021/11/17 07:20:40;;;;;;;;;;;7.20;99.90;;;;;;4961901;28;20459;-76
2021/11/17 07:23:08;;;;;;;;;;;7.20;99.90;;;;;;4961155;28;20392;-74
2021/11/17 07:25:34;;;;;;;;;;;7.20;99.90;;;;;;4960536;28;19933;-74
2021/11/17 07:28:02;;;;;;;;;;;7.20;99.90;;;;;;4944471;28;19926;-76
2021/11/17 07:30:33;;;;;;;;;;;7.20;99.90;;;;;;4953867;28;19927;-74
2021/11/17 07:33:18;;;;;;;;;;;7.20;99.90;;;;;;4954812;28;20476;-76
2021/11/17 07:35:53;;;;;;;;;;;7.20;99.90;;;;;;4946984;28;19927;-75
2021/11/17 07:38:21;;;;;;;;;;;7.30;99.90;;;;;;4961575;28;19926;-73
2021/11/17 07:40:48;;;;;;;;;;;7.30;99.90;;;;;;4942473;28;19927;-71
2021/11/17 07:43:15;;;;;;;;;;;7.30;99.90;;;;;;4945066;28;19929;-75
2021/11/17 07:45:42;;;;;;;;;;;7.30;99.90;;;;;;4961998;28;19958;-79
2021/11/17 07:55:57;;;;;;;;;;;7.40;99.90;;;;;;5316724;22;19924;-80
2021/11/17 07:58:25;;;;;;;;;;;7.40;99.90;;;;;;5070773;28;19925;-79
2021/11/17 08:00:53;;;;;;;;;;;7.50;99.90;;;;;;5060993;28;19935;-78
2021/11/17 08:03:21;;;;;;;;;;;7.50;99.90;;;;;;5074966;28;19924;-79
2021/11/17 08:05:49;;;;;;;;;;;7.50;99.90;;;;;;5079618;28;19932;-80
2021/11/17 08:08:16;;;;;;;;;;;7.50;99.90;;;;;;5085841;28;19924;-78
2021/11/17 08:10:43;;;;;;;;;;;7.60;99.90;;;;;;5068548;28;20690;-78
2021/11/17 08:13:11;;;;;;;;;;;7.60;99.90;;;;;;5070662;28;19928;-77
2021/11/17 08:15:38;;;;;;;;;;;7.60;99.90;;;;;;5071019;28;19915;-77
2021/11/17 08:18:05;;;;;;;;;;;7.60;99.90;;;;;;5069344;28;19924;-78
2021/11/17 08:20:33;;;;;;;;;;;7.60;99.90;;;;;;5067534;28;19932;-75
2021/11/17 08:23:00;;;;;;;;;;;7.70;99.90;;;;;;5069864;28;19932;-74
2021/11/17 08:25:28;;;;;;;;;;;7.70;99.90;;;;;;5067555;28;19934;-74
2021/11/17 08:27:56;;;;;;;;;;;7.80;99.90;;;;;;5066384;28;20097;-74
2021/11/17 08:30:26;;;;;;;;;;;7.80;99.90;;;;;;5066754;28;19925;-74
2021/11/17 08:32:53;;;;;;;;;;;7.80;99.90;;;;;;5056222;28;19932;-73
2021/11/17 08:35:21;;;;;;;;;;;7.80;99.90;;;;;;5067314;28;19932;-75
2021/11/17 08:37:50;;;;;;;;;;;7.80;99.90;;;;;;5059803;28;19934;-76
2021/11/17 08:40:18;;;;;;;;;;;7.80;99.90;;;;;;5054496;28;20031;-76
2021/11/17 08:42:45;;;;;;;;;;;7.90;99.90;;;;;;5059894;28;20433;-77
2021/11/17 08:45:12;;;;;;;;;;;7.90;99.90;;;;;;5054338;28;20479;-73
2021/11/17 08:47:41;;;;;;;;;;;7.80;99.90;;;;;;5059753;28;19925;-75
2021/11/17 08:50:09;;;;;;;;;;;7.90;99.90;;;;;;5049280;28;19943;-74
2021/11/17 08:52:35;;;;;;;;;;;8.10;99.90;;;;;;5050671;28;19928;-75
2021/11/17 08:55:02;;;;;;;;;;;8.00;99.90;;;;;;5052293;28;19938;-77
2021/11/17 08:57:29;;;;;;;;;;;8.00;99.90;;;;;;5053355;28;19931;-76
2021/11/17 08:59:55;;;;;;;;;;;8.00;99.90;;;;;;5052530;28;19931;-78
2021/11/17 09:02:22;;;;;;;;;;;8.00;99.90;;;;;;5054089;28;19962;-76
2021/11/17 09:04:50;;;;;;;;;;;8.00;99.90;;;;;;5054227;28;19928;-76
2021/11/17 09:07:17;;;;;;;;;;;8.00;99.90;;;;;;5068420;28;19930;-74
2021/11/17 09:09:44;;;;;;;;;;;8.00;99.90;;;;;;5071720;28;20428;-75
2021/11/17 09:12:11;;;;;;;;;;;8.10;99.90;;;;;;5058679;28;19943;-75
2021/11/17 09:14:38;;;;;;;;;;;8.20;99.90;;;;;;5055155;28;19928;-75
2021/11/17 09:17:05;;;;;;;;;;;8.30;99.90;;;;;;5051960;28;20012;-74
2021/11/17 09:19:31;;;;;;;;;;;8.50;99.90;;;;;;5052857;28;19928;-74
2021/11/17 09:22:00;;;;;;;;;;;8.50;99.90;;;;;;5053719;28;19928;-73
2021/11/17 09:24:27;;;;;;;;;;;8.60;99.90;;;;;;5050731;28;19940;-74
2021/11/17 09:26:54;;;;;;;;;;;8.60;99.90;;;;;;5057491;28;19928;-79
2021/11/17 09:29:23;;;;;;;;;;;8.60;99.90;;;;;;5071728;28;19931;-79
2021/11/17 09:31:49;;;;;;;;;;;8.60;99.90;;;;;;5079842;28;19924;-79
2021/11/17 09:34:16;;;;;;;;;;;8.60;99.90;;;;;;5086261;28;20011;-79
2021/11/17 09:36:44;;;;;;;;;;;8.60;99.90;;;;;;5086606;28;19963;-81
2021/11/17 09:39:14;;;;;;;;;;;8.70;99.90;;;;;;5095247;28;19922;-78
2021/11/17 09:41:42;;;;;;;;;;;8.80;99.90;;;;;;5079480;28;19928;-79
2021/11/17 09:44:11;;;;;;;;;;;8.90;99.90;;;;;;5080892;28;19908;-79
2021/11/17 09:46:38;;;;;;;;;;;8.90;99.90;;;;;;5107834;22;19933;-78
2021/11/17 09:49:07;;;;;;;;;;;8.90;99.90;;;;;;5025987;28;19947;-73
2021/11/17 09:51:35;;;;;;;;;;;8.90;99.90;;;;;;5029361;28;19935;-74
2021/11/17 09:54:07;;;;;;;;;;;8.90;99.90;;;;;;5027379;28;19926;-74
2021/11/17 09:56:37;;;;;;;;;;;9.00;99.90;;;;;;5020848;28;19929;-74
2021/11/17 09:59:05;;;;;;;;;;;9.10;99.90;;;;;;5025160;28;19939;-75
2021/11/17 10:01:33;;;;;;;;;;;9.10;99.90;;;;;;5029935;28;20392;-75
2021/11/17 10:04:03;;;;;;;;;;;9.10;99.90;;;;;;5027587;28;20289;-74
2021/11/17 10:09:49;;;;;;;;;;;9.10;99.90;;;;;;4964476;28;20376;-76
2021/11/17 10:15:13;;;;;;;;;;;9.20;99.90;;;;;;5016598;28;20026;-74
2021/11/17 10:17:43;;;;;;;;;;;9.20;99.90;;;;;;5012319;28;19951;-75
2021/11/17 10:20:25;;;;;;;;;;;9.20;99.90;;;;;;5012988;28;19933;-75
2021/11/17 10:23:09;;;;;;;;;;;9.20;99.90;;;;;;5008530;28;19944;-79
2021/11/17 10:25:41;;;;;;;;;;;9.20;99.90;;;;;;5012764;28;20331;-79
2021/11/17 10:28:09;;;;;;;;;;;9.40;99.90;;;;;;5019383;28;20495;-76
2021/11/17 10:30:37;;;;;;;;;;;9.40;99.90;;;;;;5011720;28;19932;-77
2021/11/17 10:33:12;;;;;;;;;;;9.50;99.90;;;;;;5012076;28;19936;-76
2021/11/17 10:35:42;;;;;;;;;;;9.60;99.90;;;;;;5013961;28;19976;-77
2021/11/17 10:38:11;;;;;;;;;;;9.60;99.90;;;;;;5014315;28;20209;-76
2021/11/17 10:40:44;;;;;;;;;;;9.60;99.90;;;;;;5014890;28;19941;-81
2021/11/17 10:43:17;;;;;;;;;;;9.60;99.90;;;;;;5011933;28;19933;-79
2021/11/17 10:45:46;;;;;;;;;;;9.60;99.90;;;;;;5015689;28;19985;-81
2021/11/17 10:48:17;;;;;;;;;;;9.70;99.90;;;;;;5023386;28;19948;-77
2021/11/17 10:50:44;;;;;;;;;;;9.70;99.90;;;;;;5011806;28;19931;-75
2021/11/17 10:53:14;;;;;;;;;;;9.80;99.90;;;;;;5010362;28;20004;-75
2021/11/17 10:55:42;;;;;;;;;;;9.80;99.90;;;;;;5011486;28;20052;-75
2021/11/17 10:58:10;;;;;;;;;;;9.80;99.90;;;;;;5009414;28;19933;-76
2021/11/17 11:00:40;;;;;;;;;;;9.80;99.90;;;;;;5010850;28;19933;-74
2021/11/17 11:03:08;;;;;;;;;;;9.70;99.90;;;;;;5008566;28;19960;-75
2021/11/17 11:05:36;;;;;;;;;;;9.70;99.90;;;;;;5012801;28;20031;-75
2021/11/17 11:08:06;;;;;;;;;;;9.70;99.90;;;;;;5008891;28;19934;-75
2021/11/17 11:10:36;;;;;;;;;;;9.80;99.90;;;;;;5011413;28;19933;-75
2021/11/17 11:13:04;;;;;;;;;;;9.80;99.90;;;;;;5007570;28;19936;-76
2021/11/17 11:15:36;;;;;;;;;;;9.80;99.90;;;;;;5012004;28;19937;-77
2021/11/17 11:18:25;;;;;;;;;;;9.90;99.90;;;;;;5014035;28;20418;-78
2021/11/17 11:20:53;;;;;;;;;;;9.90;99.90;;;;;;5029077;28;19971;-78
2021/11/17 11:23:24;;;;;;;;;;;9.90;99.90;;;;;;5029327;28;19937;-79
2021/11/17 11:25:59;;;;;;;;;;;9.90;99.90;;;;;;5025254;28;20369;-78
2021/11/17 11:28:28;;;;;;;;;;;10.00;99.90;;;;;;5027803;28;19930;-78
2021/11/17 11:31:10;;;;;;;;;;;9.90;99.90;;;;;;5027579;28;19925;-78
2021/11/17 11:33:38;;;;;;;;;;;10.00;99.90;;;;;;5028047;28;19980;-78
2021/11/17 11:36:36;;;;;;;;;;;10.10;99.90;;;;;;5028866;28;19979;-78
2021/11/17 11:39:21;;;;;;;;;;;10.10;99.90;;;;;;5010798;28;20426;-75
2021/11/17 11:42:05;;;;;;;;;;;10.20;99.90;;;;;;5012937;28;19933;-79
2021/11/17 11:44:35;;;;;;;;;;;10.20;99.90;;;;;;5008257;28;19933;-78
2021/11/17 11:47:20;;;;;;;;;;;10.30;99.90;;;;;;5009938;28;19929;-77
2021/11/17 11:49:49;;;;;;;;;;;10.30;99.90;;;;;;5007095;28;19933;-76
2021/11/17 11:52:27;;;;;;;;;;;10.40;99.90;;;;;;5008101;28;19941;-76
2021/11/17 11:55:15;;;;;;;;;;;10.60;99.90;;;;;;5005997;28;19925;-77
2021/11/17 11:57:43;;;;;;;;;;;10.70;99.90;;;;;;5006120;28;19935;-77
2021/11/17 12:00:12;;;;;;;;;;;10.80;99.90;;;;;;5006574;28;19935;-77
2021/11/17 12:02:40;;;;;;;;;;;10.90;99.90;;;;;;5006945;28;19929;-77
2021/11/17 12:05:11;;;;;;;;;;;10.90;99.90;;;;;;5007011;28;19930;-78
2021/11/17 12:07:43;;;;;;;;;;;11.10;99.90;;;;;;5006426;28;20012;-76
2021/11/17 12:10:21;;;;;;;;;;;11.20;99.90;;;;;;5006010;28;19939;-76
2021/11/17 12:12:48;;;;;;;;;;;11.20;99.90;;;;;;5005504;28;20028;-76
2021/11/17 12:15:20;;;;;;;;;;;11.30;99.90;;;;;;5013778;28;20432;-75
2021/11/17 12:17:48;;;;;;;;;;;11.40;99.90;;;;;;5006130;28;19939;-75
2021/11/17 12:20:22;;;;;;;;;;;11.50;99.90;;;;;;5013801;28;19925;-76
2021/11/17 12:22:50;;;;;;;;;;;11.70;99.90;;;;;;5006731;28;19944;-76
2021/11/17 12:25:33;;;;;;;;;;;11.80;99.90;;;;;;5006490;28;20310;-74
2021/11/17 12:28:01;;;;;;;;;;;11.90;99.90;;;;;;5009233;28;20048;-79
2021/11/17 12:30:35;;;;;;;;;;;11.90;99.90;;;;;;5005528;28;19933;-81
2021/11/17 12:33:04;;;;;;;;;;;12.00;99.90;;;;;;5005973;28;20051;-85
2021/11/17 12:35:35;;;;;;;;;;;11.90;99.90;;;;;;5008521;28;19952;-78
2021/11/17 12:38:04;;;;;;;;;;;11.80;99.90;;;;;;5006426;28;19939;-78
2021/11/17 12:40:33;;;;;;;;;;;11.80;99.90;;;;;;5024599;28;19937;-80
2021/11/17 12:43:01;;;;;;;;;;;11.90;99.90;;;;;;5018755;28;20031;-79
2021/11/17 12:45:29;;;;;;;;;;;11.90;99.90;;;;;;5023059;28;20406;-79
2021/11/17 12:47:57;;;;;;;;;;;11.90;99.90;;;;;;5022027;28;19929;-80
2021/11/17 12:50:26;;;;;;;;;;;11.80;99.90;;;;;;5021024;28;19925;-77
2021/11/17 12:52:56;;;;;;;;;;;11.90;99.90;;;;;;5018776;28;19929;-79
2021/11/17 12:55:28;;;;;;;;;;;11.90;99.90;;;;;;5006654;28;20343;-79
2021/11/17 12:57:58;;;;;;;;;;;11.80;99.90;;;;;;5005169;28;20297;-78
2021/11/17 13:00:40;;;;;;;;;;;11.70;99.90;;;;;;5007337;28;19930;-78
2021/11/17 13:03:07;;;;;;;;;;;11.60;99.90;;;;;;5005431;28;20063;-80
2021/11/17 13:05:36;;;;;;;;;;;11.60;99.90;;;;;;5007266;28;19936;-81
2021/11/17 13:08:11;;;;;;;;;;;11.70;99.90;;;;;;5006609;28;19935;-81
2021/11/17 13:10:39;;;;;;;;;;;11.80;99.90;;;;;;5006284;28;20307;-80
2021/11/17 13:13:11;;;;;;;;;;;11.70;99.90;;;;;;5006714;28;20511;-79
2021/11/17 13:15:40;;;;;;;;;;;11.50;99.90;;;;;;5021793;28;19932;-79
2021/11/17 13:18:07;;;;;;;;;;;11.50;99.90;;;;;;5021393;28;19932;-79
2021/11/17 13:20:42;;;;;;;;;;;11.40;99.90;;;;;;5028387;28;19925;-80
2021/11/17 13:23:32;;;;;;;;;;;11.30;99.90;;;;;;5014971;28;19925;-79
2021/11/17 13:26:12;;;;;;;;;;;11.30;99.90;;;;;;4992559;28;19930;-80
2021/11/17 13:28:40;;;;;;;;;;;11.20;99.90;;;;;;5007599;28;20316;-78
2021/11/17 13:31:25;;;;;;;;;;;11.10;99.90;;;;;;5006045;28;19929;-79
2021/11/17 13:33:53;;;;;;;;;;;11.10;99.90;;;;;;5003604;28;20392;-81
2021/11/17 13:36:34;;;;;;;;;;;11.10;99.90;;;;;;5005417;28;20288;-79
2021/11/17 13:39:01;;;;;;;;;;;11.10;99.90;;;;;;5004727;28;19939;-78
2021/11/17 13:41:29;;;;;;;;;;;11.20;99.90;;;;;;5006833;28;19940;-77
2021/11/17 13:43:56;;;;;;;;;;;11.20;99.90;;;;;;5006520;28;20004;-79
2021/11/17 13:46:23;;;;;;;;;;;11.30;99.90;;;;;;5008931;28;19929;-76
2021/11/17 13:48:50;;;;;;;;;;;11.30;99.90;;;;;;5008455;28;20067;-77
2021/11/17 13:51:19;;;;;;;;;;;11.40;99.90;;;;;;5006191;28;21341;-77
2021/11/17 13:53:46;;;;;;;;;;;11.40;99.90;;;;;;5003354;28;19933;-77
2021/11/17 13:56:14;;;;;;;;;;;11.30;99.90;;;;;;5022635;22;20376;-77
2021/11/17 13:58:42;;;;;;;;;;;11.30;99.90;;;;;;5044108;28;19939;-75
2021/11/17 14:01:09;;;;;;;;;;;11.30;99.90;;;;;;5034454;28;19929;-77
2021/11/17 14:03:37;;;;;;;;;;;11.30;99.90;;;;;;5039100;28;20309;-88
2021/11/17 14:06:05;;;;;;;;;;;11.20;99.90;;;;;;5032921;28;19976;-81
2021/11/17 14:08:32;;;;;;;;;;;11.10;99.90;;;;;;5036914;28;19925;-80
2021/11/17 14:10:59;;;;;;;;;;;11.00;99.90;;;;;;5039111;28;19929;-80
2021/11/17 14:13:26;;;;;;;;;;;10.90;99.90;;;;;;5037598;28;19932;-81
2021/11/17 14:15:55;;;;;;;;;;;10.90;99.90;;;;;;5036374;28;19931;-80
2021/11/17 14:18:21;;;;;;;;;;;10.80;99.90;;;;;;5040644;28;19929;-83
2021/11/17 14:20:49;;;;;;;;;;;10.80;99.90;;;;;;5041900;28;19948;-78
2021/11/17 14:23:16;;;;;;;;;;;10.70;99.90;;;;;;5042249;28;19933;-78
2021/11/17 14:25:43;;;;;;;;;;;10.70;99.90;;;;;;5043098;28;21672;-76
2021/11/17 14:28:13;;;;;;;;;;;10.70;99.90;;;;;;5040019;28;19924;-77
2021/11/17 14:30:41;;;;;;;;;;;10.70;99.90;;;;;;5046292;28;20299;-78
2021/11/17 14:33:10;;;;;;;;;;;10.70;99.90;;;;;;5032981;28;20404;-78
2021/11/17 14:35:38;;;;;;;;;;;10.70;99.90;;;;;;5041349;28;19931;-79
2021/11/17 14:38:05;;;;;;;;;;;10.70;99.90;;;;;;5040640;28;19925;-78
2021/11/17 14:40:32;;;;;;;;;;;10.80;99.90;;;;;;5041250;28;20375;-77
2021/11/17 14:42:58;;;;;;;;;;;10.70;99.90;;;;;;5042222;28;19932;-76
2021/11/17 14:45:27;;;;;;;;;;;10.70;99.90;;;;;;5047643;28;19925;-78
2021/11/17 14:47:54;;;;;;;;;;;10.70;99.90;;;;;;5044860;28;20391;-75
2021/11/17 14:50:22;;;;;;;;;;;10.70;99.90;;;;;;5034439;28;19931;-75
2021/11/17 14:52:50;;;;;;;;;;;10.70;99.90;;;;;;5043067;28;19929;-77
2021/11/17 14:55:18;;;;;;;;;;;10.70;99.90;;;;;;5037433;28;19929;-75
2021/11/17 14:57:45;;;;;;;;;;;10.70;99.90;;;;;;5045636;28;19949;-75
2021/11/17 15:00:13;;;;;;;;;;;10.70;99.90;;;;;;5039415;28;20269;-76
2021/11/17 15:02:40;;;;;;;;;;;10.70;99.90;;;;;;5035771;28;19932;-77
2021/11/17 15:05:07;;;;;;;;;;;10.60;99.90;;;;;;5034164;28;19925;-77
2021/11/17 15:07:36;;;;;;;;;;;10.60;99.90;;;;;;5038851;28;20011;-76
2021/11/17 15:10:04;;;;;;;;;;;10.60;99.90;;;;;;5040989;28;19931;-81
2021/11/17 15:12:32;;;;;;;;;;;10.50;99.90;;;;;;5041279;28;19932;-79
2021/11/17 15:15:00;;;;;;;;;;;10.50;99.90;;;;;;5044883;28;19983;-78
2021/11/17 15:17:26;;;;;;;;;;;10.40;99.90;;;;;;5040237;28;20308;-80
2021/11/17 15:19:53;;;;;;;;;;;10.40;99.90;;;;;;5046605;28;20019;-79
2021/11/17 15:22:22;;;;;;;;;;;10.30;99.90;;;;;;5039738;28;20414;-78
2021/11/17 15:24:51;;;;;;;;;;;10.30;99.90;;;;;;5050279;28;19925;-88
2021/11/17 15:27:29;;;;;;;;;;;10.20;99.90;;;;;;5049148;28;20379;-88
2021/11/17 15:29:56;;;;;;;;;;;10.20;99.90;;;;;;5050458;28;20011;-86
2021/11/17 15:32:23;;;;;;;;;;;10.10;99.90;;;;;;5057978;28;19968;-89
2021/11/17 15:34:50;;;;;;;;;;;10.00;99.90;;;;;;5046161;28;19947;-81
2021/11/17 15:37:17;;;;;;;;;;;9.90;99.90;;;;;;5047095;28;19929;-74
2021/11/17 15:39:44;;;;;;;;;;;9.90;99.90;;;;;;5041698;28;19924;-75
2021/11/17 15:42:12;;;;;;;;;;;9.80;99.90;;;;;;5040215;28;20311;-75
2021/11/17 15:44:39;;;;;;;;;;;9.80;99.90;;;;;;5037362;28;20403;-75
2021/11/17 15:47:06;;;;;;;;;;;9.80;99.90;;;;;;5042585;28;19931;-76
2021/11/17 15:49:34;;;;;;;;;;;9.70;99.90;;;;;;5043361;28;19924;-76
2021/11/17 15:52:01;;;;;;;;;;;9.60;99.90;;;;;;5043857;28;19932;-76
2021/11/17 15:54:28;;;;;;;;;;;9.60;99.90;;;;;;5039999;28;19931;-76
2021/11/17 15:56:55;;;;;;;;;;;9.50;99.90;;;;;;5033056;28;19932;-77
2021/11/17 15:59:23;;;;;;;;;;;9.40;99.90;;;;;;5042786;28;20000;-78
2021/11/17 16:01:51;;;;;;;;;;;9.40;99.90;;;;;;5036205;28;19928;-76
2021/11/17 16:04:17;;;;;;;;;;;9.40;99.90;;;;;;5040501;28;19943;-76
2021/11/17 16:06:53;;;;;;;;;;;9.30;99.90;;;;;;5037880;28;19925;-76
2021/11/17 16:09:20;;;;;;;;;;;9.10;99.90;;;;;;5041296;28;19931;-78
2021/11/17 16:11:47;;;;;;;;;;;9.10;99.90;;;;;;5037170;28;19973;-78
2021/11/17 16:14:17;;;;;;;;;;;9.10;99.90;;;;;;5035471;28;19925;-77
2021/11/17 16:16:46;;;;;;;;;;;9.00;99.90;;;;;;5039544;28;20360;-78
2021/11/17 16:19:13;;;;;;;;;;;8.90;99.90;;;;;;5036990;28;19943;-79
2021/11/17 16:21:40;;;;;;;;;;;9.00;99.90;;;;;;5039717;28;19925;-77
2021/11/17 16:26:52;;;;;;;;;;;9.10;99.90;;;;;;5046009;28;20062;-77
2021/11/17 16:29:19;;;;;;;;;;;9.00;99.90;;;;;;5043149;28;19979;-78
2021/11/17 16:31:47;;;;;;;;;;;8.90;99.90;;;;;;5041302;28;20015;-77
2021/11/17 16:34:14;;;;;;;;;;;8.90;99.90;;;;;;5040153;28;19925;-73
2021/11/17 16:36:43;;;;;;;;;;;8.80;99.90;;;;;;5043645;28;19925;-76
2021/11/17 16:39:10;;;;;;;;;;;8.80;99.90;;;;;;5037533;28;19925;-77
2021/11/17 16:41:38;;;;;;;;;;;8.70;99.90;;;;;;5043887;28;20007;-79
2021/11/17 16:44:05;;;;;;;;;;;8.50;99.90;;;;;;5046326;28;20053;-78
2021/11/17 16:46:33;;;;;;;;;;;8.40;99.90;;;;;;5037048;28;19932;-79
2021/11/17 16:49:02;;;;;;;;;;;8.30;99.90;;;;;;5038356;28;20319;-81
2021/11/17 16:51:28;;;;;;;;;;;8.30;99.90;;;;;;5040689;28;19975;-77
2021/11/17 16:53:55;;;;;;;;;;;8.30;99.90;;;;;;5043563;28;19929;-78
2021/11/17 16:56:22;;;;;;;;;;;8.30;99.90;;;;;;5034625;28;19924;-78
2021/11/17 16:58:48;;;;;;;;;;;8.30;99.90;;;;;;5036819;28;19925;-80
2021/11/17 17:01:15;;;;;;;;;;;8.30;99.90;;;;;;5040484;28;20376;-79
2021/11/17 17:03:44;;;;;;;;;;;8.20;99.90;;;;;;5028780;28;19987;-80
2021/11/17 17:06:15;;;;;;;;;;;8.10;99.90;;;;;;5036271;28;19932;-77
2021/11/17 17:08:41;;;;;;;;;;;8.10;99.90;;;;;;5031947;28;20359;-82
2021/11/17 17:11:09;;;;;;;;;;;8.00;99.90;;;;;;5040824;28;19926;-87
2021/11/17 17:13:36;;;;;;;;;;;8.00;99.90;;;;;;5049660;28;20015;-85
2021/11/17 17:16:03;;;;;;;;;;;7.90;99.90;;;;;;5041998;28;19933;-81
2021/11/17 17:18:30;;;;;;;;;;;7.80;99.90;;;;;;5039506;28;19925;-82
2021/11/17 17:20:57;;;;;;;;;;;7.70;99.90;;;;;;5031114;28;19929;-79
2021/11/17 17:23:27;;;;;;;;;;;7.70;99.90;;;;;;5041533;28;19925;-79
2021/11/17 17:25:54;;;;;;;;;;;7.70;99.90;;;;;;5042187;28;20590;-77
2021/11/17 17:28:23;;;;;;;;;;;7.60;99.90;;;;;;5043875;28;20402;-76